sensor_id;sensor_type;location;lat;lon;timestamp;P1;durP1;ratioP1;P2;durP2;ratioP2
3601;SDS011;1815;50.950;6.920;2024-01-11T00:01:12;24.58;;;15.75;;
3601;SDS011;1815;50.950;6.920;2024-01-11T00:03:38;24.97;;;15.27;;
3601;SDS011;1815;50.950;6.920;2024-01-11T00:06:04;28.70;;;16.40;;
3601;SDS011;1815;50.950;6.920;2024-01-11T00:08:30;22.85;;;15.25;;
3601;SDS011;1815;50.950;6.920;2024-01-11T00:10:56;23.13;;;13.97;;
3601;SDS011;1815;50.950;6.920;2024-01-11T00:13:21;24.07;;;15.13;;
3601;SDS011;1815;50.950;6.920;2024-01-11T00:15:47;24.57;;;14.90;;
3601;SDS011;1815;50.950;6.920;2024-01-11T00:18:13;24.23;;;15.97;;
3601;SDS011;1815;50.950;6.920;2024-01-11T00:20:38;25.07;;;16.20;;
3601;SDS011;1815;50.950;6.920;2024-01-11T00:23:04;21.30;;;14.70;;
3601;SDS011;1815;50.950;6.920;2024-01-11T00:25:30;22.10;;;16.67;;
3601;SDS011;1815;50.950;6.920;2024-01-11T00:27:55;27.07;;;16.70;;
3601;SDS011;1815;50.950;6.920;2024-01-11T00:30:21;26.60;;;16.73;;
3601;SDS011;1815;50.950;6.920;2024-01-11T00:32:48;25.20;;;16.25;;
3601;SDS011;1815;50.950;6.920;2024-01-11T00:35:14;24.20;;;15.57;;
3601;SDS011;1815;50.950;6.920;2024-01-11T00:37:39;31.83;;;17.27;;
3601;SDS011;1815;50.950;6.920;2024-01-11T00:40:06;24.52;;;15.48;;
3601;SDS011;1815;50.950;6.920;2024-01-11T00:42:32;23.33;;;15.40;;
3601;SDS011;1815;50.950;6.920;2024-01-11T00:44:59;25.35;;;14.10;;
3601;SDS011;1815;50.950;6.920;2024-01-11T00:47:26;23.77;;;14.70;;
3601;SDS011;1815;50.950;6.920;2024-01-11T00:49:52;23.08;;;16.33;;
3601;SDS011;1815;50.950;6.920;2024-01-11T00:52:17;21.67;;;13.80;;
3601;SDS011;1815;50.950;6.920;2024-01-11T00:54:43;24.60;;;15.03;;
3601;SDS011;1815;50.950;6.920;2024-01-11T00:57:09;26.70;;;15.70;;
3601;SDS011;1815;50.950;6.920;2024-01-11T00:59:34;23.80;;;14.67;;
3601;SDS011;1815;50.950;6.920;2024-01-11T01:02:00;24.63;;;16.70;;
3601;SDS011;1815;50.950;6.920;2024-01-11T01:04:26;31.90;;;19.13;;
3601;SDS011;1815;50.950;6.920;2024-01-11T01:06:51;24.60;;;17.33;;
3601;SDS011;1815;50.950;6.920;2024-01-11T01:09:17;27.60;;;16.60;;
3601;SDS011;1815;50.950;6.920;2024-01-11T01:11:43;26.83;;;17.70;;
3601;SDS011;1815;50.950;6.920;2024-01-11T01:14:08;27.03;;;17.13;;
3601;SDS011;1815;50.950;6.920;2024-01-11T01:16:34;27.37;;;17.50;;
3601;SDS011;1815;50.950;6.920;2024-01-11T01:19:00;30.80;;;18.60;;
3601;SDS011;1815;50.950;6.920;2024-01-11T01:21:26;29.15;;;18.55;;
3601;SDS011;1815;50.950;6.920;2024-01-11T01:23:52;29.33;;;18.07;;
3601;SDS011;1815;50.950;6.920;2024-01-11T01:26:17;30.17;;;18.37;;
3601;SDS011;1815;50.950;6.920;2024-01-11T01:28:43;31.27;;;20.30;;
3601;SDS011;1815;50.950;6.920;2024-01-11T01:31:09;24.50;;;16.07;;
3601;SDS011;1815;50.950;6.920;2024-01-11T01:33:35;22.92;;;16.17;;
3601;SDS011;1815;50.950;6.920;2024-01-11T01:36:01;26.33;;;17.80;;
3601;SDS011;1815;50.950;6.920;2024-01-11T01:38:26;26.77;;;17.80;;
3601;SDS011;1815;50.950;6.920;2024-01-11T01:40:52;29.30;;;18.63;;
3601;SDS011;1815;50.950;6.920;2024-01-11T01:43:18;29.60;;;18.90;;
3601;SDS011;1815;50.950;6.920;2024-01-11T01:45:43;33.07;;;19.90;;
3601;SDS011;1815;50.950;6.920;2024-01-11T01:48:09;27.53;;;19.50;;
3601;SDS011;1815;50.950;6.920;2024-01-11T01:50:35;31.60;;;18.53;;
3601;SDS011;1815;50.950;6.920;2024-01-11T01:53:01;29.07;;;19.33;;
3601;SDS011;1815;50.950;6.920;2024-01-11T01:55:28;28.33;;;18.98;;
3601;SDS011;1815;50.950;6.920;2024-01-11T01:57:54;24.45;;;17.75;;
3601;SDS011;1815;50.950;6.920;2024-01-11T02:00:22;29.52;;;17.17;;
3601;SDS011;1815;50.950;6.920;2024-01-11T02:02:50;26.73;;;17.00;;
3601;SDS011;1815;50.950;6.920;2024-01-11T02:05:17;29.05;;;17.23;;
3601;SDS011;1815;50.950;6.920;2024-01-11T02:07:44;23.90;;;17.27;;
3601;SDS011;1815;50.950;6.920;2024-01-11T02:10:09;28.20;;;17.25;;
3601;SDS011;1815;50.950;6.920;2024-01-11T02:12:35;29.27;;;16.83;;
3601;SDS011;1815;50.950;6.920;2024-01-11T02:15:04;27.13;;;16.85;;
3601;SDS011;1815;50.950;6.920;2024-01-11T02:17:30;22.77;;;14.65;;
3601;SDS011;1815;50.950;6.920;2024-01-11T02:19:57;27.77;;;16.10;;
3601;SDS011;1815;50.950;6.920;2024-01-11T02:22:29;23.67;;;16.83;;
3601;SDS011;1815;50.950;6.920;2024-01-11T02:24:59;23.73;;;14.18;;
3601;SDS011;1815;50.950;6.920;2024-01-11T02:27:25;24.60;;;16.10;;
3601;SDS011;1815;50.950;6.920;2024-01-11T02:29:51;26.53;;;16.07;;
3601;SDS011;1815;50.950;6.920;2024-01-11T02:32:16;29.53;;;17.07;;
3601;SDS011;1815;50.950;6.920;2024-01-11T02:34:42;25.37;;;17.40;;
3601;SDS011;1815;50.950;6.920;2024-01-11T02:37:09;26.33;;;16.15;;
3601;SDS011;1815;50.950;6.920;2024-01-11T02:39:35;24.13;;;15.90;;
3601;SDS011;1815;50.950;6.920;2024-01-11T02:42:01;27.20;;;17.00;;
3601;SDS011;1815;50.950;6.920;2024-01-11T02:44:27;23.27;;;15.57;;
3601;SDS011;1815;50.950;6.920;2024-01-11T02:46:52;22.50;;;15.43;;
3601;SDS011;1815;50.950;6.920;2024-01-11T02:49:18;27.87;;;16.60;;
3601;SDS011;1815;50.950;6.920;2024-01-11T02:51:44;23.60;;;15.53;;
3601;SDS011;1815;50.950;6.920;2024-01-11T02:54:10;22.05;;;14.43;;
3601;SDS011;1815;50.950;6.920;2024-01-11T02:56:36;21.00;;;13.50;;
3601;SDS011;1815;50.950;6.920;2024-01-11T02:59:01;25.77;;;16.30;;
3601;SDS011;1815;50.950;6.920;2024-01-11T03:01:27;27.60;;;16.30;;
3601;SDS011;1815;50.950;6.920;2024-01-11T03:03:53;18.00;;;12.87;;
3601;SDS011;1815;50.950;6.920;2024-01-11T03:06:20;27.27;;;15.52;;
3601;SDS011;1815;50.950;6.920;2024-01-11T03:08:50;26.38;;;14.77;;
3601;SDS011;1815;50.950;6.920;2024-01-11T03:11:16;21.42;;;14.50;;
3601;SDS011;1815;50.950;6.920;2024-01-11T03:13:42;23.20;;;14.63;;
3601;SDS011;1815;50.950;6.920;2024-01-11T03:16:08;25.42;;;15.60;;
3601;SDS011;1815;50.950;6.920;2024-01-11T03:18:33;22.43;;;13.73;;
3601;SDS011;1815;50.950;6.920;2024-01-11T03:20:59;26.07;;;15.77;;
3601;SDS011;1815;50.950;6.920;2024-01-11T03:23:26;26.80;;;16.70;;
3601;SDS011;1815;50.950;6.920;2024-01-11T03:25:51;26.23;;;14.77;;
3601;SDS011;1815;50.950;6.920;2024-01-11T03:28:17;22.73;;;16.77;;
3601;SDS011;1815;50.950;6.920;2024-01-11T03:30:43;26.43;;;16.13;;
3601;SDS011;1815;50.950;6.920;2024-01-11T03:33:08;25.30;;;15.60;;
3601;SDS011;1815;50.950;6.920;2024-01-11T03:35:34;25.87;;;16.00;;
3601;SDS011;1815;50.950;6.920;2024-01-11T03:38:00;23.33;;;15.00;;
3601;SDS011;1815;50.950;6.920;2024-01-11T03:40:26;24.23;;;15.13;;
3601;SDS011;1815;50.950;6.920;2024-01-11T03:42:52;25.30;;;15.67;;
3601;SDS011;1815;50.950;6.920;2024-01-11T03:45:17;24.30;;;15.63;;
3601;SDS011;1815;50.950;6.920;2024-01-11T03:47:44;23.85;;;14.45;;
3601;SDS011;1815;50.950;6.920;2024-01-11T03:50:10;22.13;;;14.17;;
3601;SDS011;1815;50.950;6.920;2024-01-11T03:52:36;24.90;;;15.30;;
3601;SDS011;1815;50.950;6.920;2024-01-11T03:55:01;25.50;;;15.60;;
3601;SDS011;1815;50.950;6.920;2024-01-11T03:57:27;25.57;;;15.53;;
3601;SDS011;1815;50.950;6.920;2024-01-11T03:59:53;27.73;;;16.60;;
3601;SDS011;1815;50.950;6.920;2024-01-11T04:02:19;23.67;;;15.10;;
3601;SDS011;1815;50.950;6.920;2024-01-11T04:04:44;27.67;;;15.80;;
3601;SDS011;1815;50.950;6.920;2024-01-11T04:07:10;24.00;;;15.33;;
3601;SDS011;1815;50.950;6.920;2024-01-11T04:09:39;23.77;;;15.30;;
3601;SDS011;1815;50.950;6.920;2024-01-11T04:12:05;26.67;;;16.48;;
3601;SDS011;1815;50.950;6.920;2024-01-11T04:14:31;29.23;;;17.00;;
3601;SDS011;1815;50.950;6.920;2024-01-11T04:16:57;21.57;;;15.13;;
3601;SDS011;1815;50.950;6.920;2024-01-11T04:19:23;24.33;;;14.67;;
3601;SDS011;1815;50.950;6.920;2024-01-11T04:21:48;22.60;;;15.70;;
3601;SDS011;1815;50.950;6.920;2024-01-11T04:24:14;29.20;;;17.23;;
3601;SDS011;1815;50.950;6.920;2024-01-11T04:26:39;19.97;;;15.00;;
3601;SDS011;1815;50.950;6.920;2024-01-11T04:29:05;27.90;;;18.53;;
3601;SDS011;1815;50.950;6.920;2024-01-11T04:31:31;26.20;;;16.90;;
3601;SDS011;1815;50.950;6.920;2024-01-11T04:33:57;20.23;;;14.97;;
3601;SDS011;1815;50.950;6.920;2024-01-11T04:36:22;21.20;;;14.40;;
3601;SDS011;1815;50.950;6.920;2024-01-11T04:38:48;29.87;;;15.57;;
3601;SDS011;1815;50.950;6.920;2024-01-11T04:41:14;23.30;;;15.80;;
3601;SDS011;1815;50.950;6.920;2024-01-11T04:43:43;28.58;;;16.35;;
3601;SDS011;1815;50.950;6.920;2024-01-11T04:46:16;24.13;;;13.55;;
3601;SDS011;1815;50.950;6.920;2024-01-11T04:48:45;20.92;;;13.88;;
3601;SDS011;1815;50.950;6.920;2024-01-11T04:51:12;21.40;;;13.52;;
3601;SDS011;1815;50.950;6.920;2024-01-11T04:53:38;24.30;;;15.52;;
3601;SDS011;1815;50.950;6.920;2024-01-11T04:56:08;22.17;;;14.93;;
3601;SDS011;1815;50.950;6.920;2024-01-11T04:58:35;20.63;;;15.20;;
3601;SDS011;1815;50.950;6.920;2024-01-11T05:01:03;23.80;;;15.13;;
3601;SDS011;1815;50.950;6.920;2024-01-11T05:03:29;22.35;;;15.45;;
3601;SDS011;1815;50.950;6.920;2024-01-11T05:05:55;23.80;;;14.95;;
3601;SDS011;1815;50.950;6.920;2024-01-11T05:08:21;23.90;;;14.80;;
3601;SDS011;1815;50.950;6.920;2024-01-11T05:10:47;22.45;;;14.45;;
3601;SDS011;1815;50.950;6.920;2024-01-11T05:13:13;23.53;;;13.47;;
3601;SDS011;1815;50.950;6.920;2024-01-11T05:15:39;23.50;;;14.43;;
3601;SDS011;1815;50.950;6.920;2024-01-11T05:18:04;25.60;;;15.77;;
3601;SDS011;1815;50.950;6.920;2024-01-11T05:20:30;23.77;;;14.67;;
3601;SDS011;1815;50.950;6.920;2024-01-11T05:22:56;20.93;;;13.80;;
3601;SDS011;1815;50.950;6.920;2024-01-11T05:25:22;23.67;;;15.53;;
3601;SDS011;1815;50.950;6.920;2024-01-11T05:27:47;23.00;;;14.87;;
3601;SDS011;1815;50.950;6.920;2024-01-11T05:30:13;22.70;;;15.47;;
3601;SDS011;1815;50.950;6.920;2024-01-11T05:32:39;22.80;;;15.82;;
3601;SDS011;1815;50.950;6.920;2024-01-11T05:35:05;23.37;;;16.37;;
3601;SDS011;1815;50.950;6.920;2024-01-11T05:37:31;24.90;;;16.53;;
3601;SDS011;1815;50.950;6.920;2024-01-11T05:39:56;25.70;;;16.20;;
3601;SDS011;1815;50.950;6.920;2024-01-11T05:42:23;25.70;;;15.73;;
3601;SDS011;1815;50.950;6.920;2024-01-11T05:44:48;30.35;;;16.58;;
3601;SDS011;1815;50.950;6.920;2024-01-11T05:47:14;24.80;;;15.87;;
3601;SDS011;1815;50.950;6.920;2024-01-11T05:49:40;28.07;;;16.87;;
3601;SDS011;1815;50.950;6.920;2024-01-11T05:52:06;22.53;;;15.27;;
3601;SDS011;1815;50.950;6.920;2024-01-11T05:54:31;20.30;;;14.03;;
3601;SDS011;1815;50.950;6.920;2024-01-11T05:56:57;26.03;;;16.17;;
3601;SDS011;1815;50.950;6.920;2024-01-11T05:59:24;23.20;;;14.38;;
3601;SDS011;1815;50.950;6.920;2024-01-11T06:01:50;27.50;;;15.50;;
3601;SDS011;1815;50.950;6.920;2024-01-11T06:04:15;23.80;;;15.23;;
3601;SDS011;1815;50.950;6.920;2024-01-11T06:06:41;24.92;;;14.55;;
3601;SDS011;1815;50.950;6.920;2024-01-11T06:09:07;25.63;;;16.57;;
3601;SDS011;1815;50.950;6.920;2024-01-11T06:11:33;27.08;;;14.63;;
3601;SDS011;1815;50.950;6.920;2024-01-11T06:13:59;28.53;;;18.07;;
3601;SDS011;1815;50.950;6.920;2024-01-11T06:16:26;25.75;;;15.88;;
3601;SDS011;1815;50.950;6.920;2024-01-11T06:18:52;22.37;;;14.30;;
3601;SDS011;1815;50.950;6.920;2024-01-11T06:21:18;24.10;;;15.90;;
3601;SDS011;1815;50.950;6.920;2024-01-11T06:23:43;23.20;;;13.30;;
3601;SDS011;1815;50.950;6.920;2024-01-11T06:26:09;27.73;;;16.27;;
3601;SDS011;1815;50.950;6.920;2024-01-11T06:28:35;24.17;;;14.10;;
3601;SDS011;1815;50.950;6.920;2024-01-11T06:31:01;23.00;;;15.40;;
3601;SDS011;1815;50.950;6.920;2024-01-11T06:33:26;29.00;;;16.57;;
3601;SDS011;1815;50.950;6.920;2024-01-11T06:35:53;31.92;;;17.50;;
3601;SDS011;1815;50.950;6.920;2024-01-11T06:38:19;28.10;;;16.27;;
3601;SDS011;1815;50.950;6.920;2024-01-11T06:40:45;28.93;;;16.10;;
3601;SDS011;1815;50.950;6.920;2024-01-11T06:43:10;26.77;;;16.70;;
3601;SDS011;1815;50.950;6.920;2024-01-11T06:45:36;25.90;;;16.50;;
3601;SDS011;1815;50.950;6.920;2024-01-11T06:48:02;29.80;;;19.03;;
3601;SDS011;1815;50.950;6.920;2024-01-11T06:50:28;26.98;;;16.00;;
3601;SDS011;1815;50.950;6.920;2024-01-11T06:52:54;28.90;;;16.83;;
3601;SDS011;1815;50.950;6.920;2024-01-11T06:55:19;30.30;;;18.27;;
3601;SDS011;1815;50.950;6.920;2024-01-11T06:57:48;24.93;;;17.30;;
3601;SDS011;1815;50.950;6.920;2024-01-11T07:00:14;28.05;;;17.60;;
3601;SDS011;1815;50.950;6.920;2024-01-11T07:02:40;27.70;;;18.33;;
3601;SDS011;1815;50.950;6.920;2024-01-11T07:05:06;28.55;;;16.75;;
3601;SDS011;1815;50.950;6.920;2024-01-11T07:07:33;27.95;;;17.50;;
3601;SDS011;1815;50.950;6.920;2024-01-11T07:09:58;25.23;;;16.77;;
3601;SDS011;1815;50.950;6.920;2024-01-11T07:12:24;27.60;;;17.92;;
3601;SDS011;1815;50.950;6.920;2024-01-11T07:14:53;25.25;;;17.02;;
3601;SDS011;1815;50.950;6.920;2024-01-11T07:17:18;26.17;;;17.03;;
3601;SDS011;1815;50.950;6.920;2024-01-11T07:19:45;28.03;;;18.07;;
3601;SDS011;1815;50.950;6.920;2024-01-11T07:22:11;27.25;;;17.33;;
3601;SDS011;1815;50.950;6.920;2024-01-11T07:24:37;23.43;;;16.07;;
3601;SDS011;1815;50.950;6.920;2024-01-11T07:27:03;29.30;;;17.20;;
3601;SDS011;1815;50.950;6.920;2024-01-11T07:29:30;31.35;;;18.52;;
3601;SDS011;1815;50.950;6.920;2024-01-11T07:31:56;31.02;;;18.67;;
3601;SDS011;1815;50.950;6.920;2024-01-11T07:34:22;28.27;;;17.75;;
3601;SDS011;1815;50.950;6.920;2024-01-11T07:36:49;29.48;;;18.67;;
3601;SDS011;1815;50.950;6.920;2024-01-11T07:39:17;30.00;;;17.92;;
3601;SDS011;1815;50.950;6.920;2024-01-11T07:41:42;29.93;;;17.23;;
3601;SDS011;1815;50.950;6.920;2024-01-11T07:44:08;30.73;;;18.03;;
3601;SDS011;1815;50.950;6.920;2024-01-11T07:46:34;30.40;;;17.57;;
3601;SDS011;1815;50.950;6.920;2024-01-11T07:48:59;30.50;;;16.80;;
3601;SDS011;1815;50.950;6.920;2024-01-11T07:51:26;31.52;;;18.35;;
3601;SDS011;1815;50.950;6.920;2024-01-11T07:53:52;24.52;;;17.25;;
3601;SDS011;1815;50.950;6.920;2024-01-11T07:56:18;30.10;;;18.20;;
3601;SDS011;1815;50.950;6.920;2024-01-11T07:58:43;31.63;;;19.87;;
3601;SDS011;1815;50.950;6.920;2024-01-11T08:01:09;27.73;;;17.50;;
3601;SDS011;1815;50.950;6.920;2024-01-11T08:03:35;29.50;;;18.70;;
3601;SDS011;1815;50.950;6.920;2024-01-11T08:06:01;32.87;;;17.90;;
3601;SDS011;1815;50.950;6.920;2024-01-11T08:08:27;32.47;;;20.42;;
3601;SDS011;1815;50.950;6.920;2024-01-11T08:10:53;27.23;;;16.88;;
3601;SDS011;1815;50.950;6.920;2024-01-11T08:13:18;29.37;;;17.77;;
3601;SDS011;1815;50.950;6.920;2024-01-11T08:15:46;30.67;;;18.92;;
3601;SDS011;1815;50.950;6.920;2024-01-11T08:18:12;26.90;;;17.50;;
3601;SDS011;1815;50.950;6.920;2024-01-11T08:20:39;26.75;;;17.60;;
3601;SDS011;1815;50.950;6.920;2024-01-11T08:23:04;28.52;;;17.27;;
3601;SDS011;1815;50.950;6.920;2024-01-11T08:25:31;28.40;;;16.85;;
3601;SDS011;1815;50.950;6.920;2024-01-11T08:27:57;26.97;;;17.07;;
3601;SDS011;1815;50.950;6.920;2024-01-11T08:30:23;26.77;;;16.93;;
3601;SDS011;1815;50.950;6.920;2024-01-11T08:32:49;34.50;;;19.53;;
3601;SDS011;1815;50.950;6.920;2024-01-11T08:35:15;25.77;;;18.33;;
3601;SDS011;1815;50.950;6.920;2024-01-11T08:37:41;32.15;;;18.05;;
3601;SDS011;1815;50.950;6.920;2024-01-11T08:40:07;26.83;;;18.13;;
3601;SDS011;1815;50.950;6.920;2024-01-11T08:42:34;26.13;;;18.95;;
3601;SDS011;1815;50.950;6.920;2024-01-11T08:45:00;28.33;;;17.80;;
3601;SDS011;1815;50.950;6.920;2024-01-11T08:47:31;37.15;;;19.08;;
3601;SDS011;1815;50.950;6.920;2024-01-11T08:49:58;30.23;;;19.52;;
3601;SDS011;1815;50.950;6.920;2024-01-11T08:52:24;31.70;;;20.63;;
3601;SDS011;1815;50.950;6.920;2024-01-11T08:54:49;33.10;;;19.47;;
3601;SDS011;1815;50.950;6.920;2024-01-11T08:57:15;31.17;;;20.40;;
3601;SDS011;1815;50.950;6.920;2024-01-11T08:59:42;28.92;;;19.08;;
3601;SDS011;1815;50.950;6.920;2024-01-11T09:02:08;29.70;;;18.93;;
3601;SDS011;1815;50.950;6.920;2024-01-11T09:04:33;24.80;;;17.80;;
3601;SDS011;1815;50.950;6.920;2024-01-11T09:06:59;28.33;;;19.20;;
3601;SDS011;1815;50.950;6.920;2024-01-11T09:09:26;33.00;;;18.70;;
3601;SDS011;1815;50.950;6.920;2024-01-11T09:11:52;27.63;;;18.90;;
3601;SDS011;1815;50.950;6.920;2024-01-11T09:14:17;25.50;;;18.33;;
3601;SDS011;1815;50.950;6.920;2024-01-11T09:16:43;24.70;;;17.83;;
3601;SDS011;1815;50.950;6.920;2024-01-11T09:19:11;36.85;;;21.20;;
3601;SDS011;1815;50.950;6.920;2024-01-11T09:21:37;29.23;;;17.85;;
3601;SDS011;1815;50.950;6.920;2024-01-11T09:24:03;32.07;;;18.73;;
3601;SDS011;1815;50.950;6.920;2024-01-11T09:26:29;31.20;;;20.20;;
3601;SDS011;1815;50.950;6.920;2024-01-11T09:28:55;27.23;;;18.07;;
3601;SDS011;1815;50.950;6.920;2024-01-11T09:31:20;33.53;;;19.37;;
3601;SDS011;1815;50.950;6.920;2024-01-11T09:33:46;34.60;;;20.33;;
3601;SDS011;1815;50.950;6.920;2024-01-11T09:36:13;26.42;;;19.27;;
3601;SDS011;1815;50.950;6.920;2024-01-11T09:38:39;31.53;;;17.83;;
3601;SDS011;1815;50.950;6.920;2024-01-11T09:41:06;30.73;;;20.00;;
3601;SDS011;1815;50.950;6.920;2024-01-11T09:43:36;32.13;;;18.92;;
3601;SDS011;1815;50.950;6.920;2024-01-11T09:46:03;32.10;;;20.03;;
3601;SDS011;1815;50.950;6.920;2024-01-11T09:48:33;32.55;;;19.40;;
3601;SDS011;1815;50.950;6.920;2024-01-11T09:51:03;28.20;;;19.27;;
3601;SDS011;1815;50.950;6.920;2024-01-11T09:53:30;28.02;;;19.48;;
3601;SDS011;1815;50.950;6.920;2024-01-11T09:56:01;27.20;;;19.00;;
3601;SDS011;1815;50.950;6.920;2024-01-11T09:58:30;30.00;;;19.40;;
3601;SDS011;1815;50.950;6.920;2024-01-11T10:00:58;33.17;;;18.55;;
3601;SDS011;1815;50.950;6.920;2024-01-11T10:03:24;32.65;;;19.75;;
3601;SDS011;1815;50.950;6.920;2024-01-11T10:05:53;38.58;;;20.88;;
3601;SDS011;1815;50.950;6.920;2024-01-11T10:08:22;33.97;;;20.58;;
3601;SDS011;1815;50.950;6.920;2024-01-11T10:10:48;35.28;;;20.88;;
3601;SDS011;1815;50.950;6.920;2024-01-11T10:13:14;28.83;;;18.43;;
3601;SDS011;1815;50.950;6.920;2024-01-11T10:15:41;29.00;;;20.15;;
3601;SDS011;1815;50.950;6.920;2024-01-11T10:18:11;35.33;;;22.75;;
3601;SDS011;1815;50.950;6.920;2024-01-11T10:20:37;33.30;;;20.50;;
3601;SDS011;1815;50.950;6.920;2024-01-11T10:23:03;33.88;;;22.20;;
3601;SDS011;1815;50.950;6.920;2024-01-11T10:25:29;32.33;;;20.87;;
3601;SDS011;1815;50.950;6.920;2024-01-11T10:27:55;33.50;;;21.03;;
3601;SDS011;1815;50.950;6.920;2024-01-11T10:30:22;37.28;;;22.23;;
3601;SDS011;1815;50.950;6.920;2024-01-11T10:32:49;32.33;;;21.23;;
3601;SDS011;1815;50.950;6.920;2024-01-11T10:35:15;34.10;;;21.10;;
3601;SDS011;1815;50.950;6.920;2024-01-11T10:37:43;32.08;;;21.83;;
3601;SDS011;1815;50.950;6.920;2024-01-11T10:40:09;30.17;;;21.90;;
3601;SDS011;1815;50.950;6.920;2024-01-11T10:42:42;29.90;;;19.67;;
3601;SDS011;1815;50.950;6.920;2024-01-11T10:45:10;33.30;;;21.88;;
3601;SDS011;1815;50.950;6.920;2024-01-11T10:47:42;27.58;;;18.75;;
3601;SDS011;1815;50.950;6.920;2024-01-11T10:50:10;35.78;;;21.17;;
3601;SDS011;1815;50.950;6.920;2024-01-11T10:52:40;35.50;;;23.50;;
3601;SDS011;1815;50.950;6.920;2024-01-11T10:55:09;35.03;;;22.00;;
3601;SDS011;1815;50.950;6.920;2024-01-11T10:57:35;38.92;;;24.90;;
3601;SDS011;1815;50.950;6.920;2024-01-11T11:00:02;35.42;;;22.23;;
3601;SDS011;1815;50.950;6.920;2024-01-11T11:02:31;37.90;;;22.77;;
3601;SDS011;1815;50.950;6.920;2024-01-11T11:04:59;33.42;;;22.85;;
3601;SDS011;1815;50.950;6.920;2024-01-11T11:07:29;31.35;;;22.60;;
3601;SDS011;1815;50.950;6.920;2024-01-11T11:09:57;39.90;;;22.40;;
3601;SDS011;1815;50.950;6.920;2024-01-11T11:12:24;30.98;;;21.13;;
3601;SDS011;1815;50.950;6.920;2024-01-11T11:14:50;37.70;;;25.83;;
3601;SDS011;1815;50.950;6.920;2024-01-11T11:17:17;32.08;;;23.27;;
3601;SDS011;1815;50.950;6.920;2024-01-11T11:19:44;33.15;;;22.40;;
3601;SDS011;1815;50.950;6.920;2024-01-11T11:22:09;28.93;;;21.73;;
3601;SDS011;1815;50.950;6.920;2024-01-11T11:24:40;32.70;;;21.63;;
3601;SDS011;1815;50.950;6.920;2024-01-11T11:27:05;38.63;;;28.33;;
3601;SDS011;1815;50.950;6.920;2024-01-11T11:29:32;39.42;;;25.67;;
3601;SDS011;1815;50.950;6.920;2024-01-11T11:31:57;28.50;;;20.70;;
3601;SDS011;1815;50.950;6.920;2024-01-11T11:34:40;34.50;;;23.35;;
3601;SDS011;1815;50.950;6.920;2024-01-11T11:37:10;31.40;;;20.63;;
3601;SDS011;1815;50.950;6.920;2024-01-11T11:39:36;30.90;;;19.13;;
3601;SDS011;1815;50.950;6.920;2024-01-11T11:42:02;30.90;;;21.05;;
3601;SDS011;1815;50.950;6.920;2024-01-11T11:44:29;31.98;;;19.70;;
3601;SDS011;1815;50.950;6.920;2024-01-11T11:46:56;29.15;;;18.17;;
3601;SDS011;1815;50.950;6.920;2024-01-11T11:52:34;27.40;;;18.70;;
3601;SDS011;1815;50.950;6.920;2024-01-11T11:55:05;27.30;;;18.67;;
3601;SDS011;1815;50.950;6.920;2024-01-11T11:57:33;28.63;;;19.00;;
3601;SDS011;1815;50.950;6.920;2024-01-11T11:59:59;26.35;;;17.42;;
3601;SDS011;1815;50.950;6.920;2024-01-11T12:02:36;30.98;;;19.55;;
3601;SDS011;1815;50.950;6.920;2024-01-11T12:05:02;29.77;;;20.20;;
3601;SDS011;1815;50.950;6.920;2024-01-11T12:07:29;30.05;;;19.20;;
3601;SDS011;1815;50.950;6.920;2024-01-11T12:09:55;27.70;;;19.67;;
3601;SDS011;1815;50.950;6.920;2024-01-11T12:12:20;30.37;;;20.53;;
3601;SDS011;1815;50.950;6.920;2024-01-11T12:14:47;33.70;;;21.83;;
3601;SDS011;1815;50.950;6.920;2024-01-11T12:17:14;31.58;;;21.40;;
3601;SDS011;1815;50.950;6.920;2024-01-11T12:19:39;30.53;;;20.80;;
3601;SDS011;1815;50.950;6.920;2024-01-11T12:22:05;29.80;;;20.43;;
3601;SDS011;1815;50.950;6.920;2024-01-11T12:24:31;30.02;;;21.50;;
3601;SDS011;1815;50.950;6.920;2024-01-11T12:26:59;28.40;;;20.70;;
3601;SDS011;1815;50.950;6.920;2024-01-11T12:29:28;31.70;;;20.58;;
3601;SDS011;1815;50.950;6.920;2024-01-11T12:31:57;25.73;;;19.92;;
3601;SDS011;1815;50.950;6.920;2024-01-11T12:34:26;34.53;;;20.10;;
3601;SDS011;1815;50.950;6.920;2024-01-11T12:36:53;29.48;;;20.98;;
3601;SDS011;1815;50.950;6.920;2024-01-11T12:39:20;32.58;;;22.08;;
3601;SDS011;1815;50.950;6.920;2024-01-11T12:41:50;32.90;;;22.55;;
3601;SDS011;1815;50.950;6.920;2024-01-11T12:44:17;31.60;;;21.73;;
3601;SDS011;1815;50.950;6.920;2024-01-11T12:46:49;36.20;;;23.38;;
3601;SDS011;1815;50.950;6.920;2024-01-11T12:49:14;31.55;;;19.33;;
3601;SDS011;1815;50.950;6.920;2024-01-11T12:51:40;29.10;;;21.52;;
3601;SDS011;1815;50.950;6.920;2024-01-11T12:54:12;36.50;;;24.47;;
3601;SDS011;1815;50.950;6.920;2024-01-11T12:56:43;31.70;;;22.27;;
3601;SDS011;1815;50.950;6.920;2024-01-11T12:59:09;26.52;;;18.85;;
3601;SDS011;1815;50.950;6.920;2024-01-11T13:01:36;29.95;;;20.92;;
3601;SDS011;1815;50.950;6.920;2024-01-11T13:04:07;32.08;;;20.05;;
3601;SDS011;1815;50.950;6.920;2024-01-11T13:06:34;23.85;;;18.80;;
3601;SDS011;1815;50.950;6.920;2024-01-11T13:09:00;29.63;;;20.50;;
3601;SDS011;1815;50.950;6.920;2024-01-11T13:11:26;28.63;;;20.02;;
3601;SDS011;1815;50.950;6.920;2024-01-11T13:13:53;31.42;;;20.38;;
3601;SDS011;1815;50.950;6.920;2024-01-11T13:16:19;27.40;;;19.40;;
3601;SDS011;1815;50.950;6.920;2024-01-11T13:18:46;31.42;;;20.73;;
3601;SDS011;1815;50.950;6.920;2024-01-11T13:21:12;30.33;;;21.33;;
3601;SDS011;1815;50.950;6.920;2024-01-11T13:23:38;30.10;;;21.17;;
3601;SDS011;1815;50.950;6.920;2024-01-11T13:26:05;37.78;;;23.60;;
3601;SDS011;1815;50.950;6.920;2024-01-11T13:28:31;28.40;;;21.10;;
3601;SDS011;1815;50.950;6.920;2024-01-11T13:30:58;31.85;;;22.33;;
3601;SDS011;1815;50.950;6.920;2024-01-11T13:33:24;35.42;;;25.30;;
3601;SDS011;1815;50.950;6.920;2024-01-11T13:35:50;38.43;;;24.90;;
3601;SDS011;1815;50.950;6.920;2024-01-11T13:38:16;31.08;;;22.27;;
3601;SDS011;1815;50.950;6.920;2024-01-11T13:40:42;38.00;;;23.20;;
3601;SDS011;1815;50.950;6.920;2024-01-11T13:43:08;32.17;;;22.30;;
3601;SDS011;1815;50.950;6.920;2024-01-11T13:45:35;28.58;;;19.92;;
3601;SDS011;1815;50.950;6.920;2024-01-11T13:48:01;34.50;;;23.13;;
3601;SDS011;1815;50.950;6.920;2024-01-11T13:50:28;30.60;;;21.50;;
3601;SDS011;1815;50.950;6.920;2024-01-11T13:52:54;29.30;;;21.00;;
3601;SDS011;1815;50.950;6.920;2024-01-11T13:55:20;34.47;;;21.13;;
3601;SDS011;1815;50.950;6.920;2024-01-11T13:57:46;29.10;;;20.23;;
3601;SDS011;1815;50.950;6.920;2024-01-11T14:00:13;33.33;;;23.15;;
3601;SDS011;1815;50.950;6.920;2024-01-11T14:02:39;33.03;;;21.73;;
3601;SDS011;1815;50.950;6.920;2024-01-11T14:05:10;33.13;;;23.85;;
3601;SDS011;1815;50.950;6.920;2024-01-11T14:07:37;28.60;;;21.23;;
3601;SDS011;1815;50.950;6.920;2024-01-11T14:10:04;28.92;;;21.42;;
3601;SDS011;1815;50.950;6.920;2024-01-11T14:12:31;33.67;;;21.88;;
3601;SDS011;1815;50.950;6.920;2024-01-11T14:14:57;27.98;;;19.90;;
3601;SDS011;1815;50.950;6.920;2024-01-11T14:17:23;29.13;;;20.80;;
3601;SDS011;1815;50.950;6.920;2024-01-11T14:19:48;25.37;;;18.80;;
3601;SDS011;1815;50.950;6.920;2024-01-11T14:22:14;27.67;;;19.00;;
3601;SDS011;1815;50.950;6.920;2024-01-11T14:24:40;29.23;;;19.77;;
3601;SDS011;1815;50.950;6.920;2024-01-11T14:27:06;25.87;;;20.57;;
3601;SDS011;1815;50.950;6.920;2024-01-11T14:29:32;33.08;;;21.58;;
3601;SDS011;1815;50.950;6.920;2024-01-11T14:31:58;32.20;;;22.60;;
3601;SDS011;1815;50.950;6.920;2024-01-11T14:34:24;32.57;;;21.73;;
3601;SDS011;1815;50.950;6.920;2024-01-11T14:36:49;28.87;;;19.23;;
3601;SDS011;1815;50.950;6.920;2024-01-11T14:39:15;30.52;;;22.13;;
3601;SDS011;1815;50.950;6.920;2024-01-11T14:41:41;27.80;;;20.00;;
3601;SDS011;1815;50.950;6.920;2024-01-11T14:44:07;31.80;;;21.30;;
3601;SDS011;1815;50.950;6.920;2024-01-11T14:46:35;30.77;;;20.65;;